sensor_id;sensor_type;location;lat;lon;timestamp;P1;P2;P0
55076;PMS7003;40971;44.702;11.030;2023-09-30T00:05:42;53.00;45.67;31.67
55076;PMS7003;40971;44.702;11.030;2023-09-30T00:15:43;41.00;40.33;29.00
55076;PMS7003;40971;44.702;11.030;2023-09-30T00:25:45;57.67;49.67;35.00
55076;PMS7003;40971;44.702;11.030;2023-09-30T00:35:46;55.33;48.00;32.00
55076;PMS7003;40971;44.702;11.030;2023-09-30T00:45:48;51.33;44.00;30.33
55076;PMS7003;40971;44.702;11.030;2023-09-30T00:56:03;42.00;41.00;29.33
55076;PMS7003;40971;44.702;11.030;2023-09-30T01:06:07;56.00;48.33;33.67
55076;PMS7003;40971;44.702;11.030;2023-09-30T01:16:09;52.67;46.00;30.33
55076;PMS7003;40971;44.702;11.030;2023-09-30T01:26:12;54.33;44.67;31.00
55076;PMS7003;40971;44.702;11.030;2023-09-30T01:36:15;51.67;44.67;30.67
55076;PMS7003;40971;44.702;11.030;2023-09-30T01:46:20;52.00;45.67;30.67
55076;PMS7003;40971;44.702;11.030;2023-09-30T01:56:21;54.00;46.67;32.00
55076;PMS7003;40971;44.702;11.030;2023-09-30T02:06:22;46.40;41.40;30.00
55076;PMS7003;40971;44.702;11.030;2023-09-30T02:16:24;48.50;43.75;29.50
55076;PMS7003;40971;44.702;11.030;2023-09-30T02:26:28;48.67;44.00;30.33
55076;PMS7003;40971;44.702;11.030;2023-09-30T02:36:30;55.00;47.00;32.00
55076;PMS7003;40971;44.702;11.030;2023-09-30T02:46:32;49.00;43.33;30.33
55076;PMS7003;40971;44.702;11.030;2023-09-30T02:56:34;50.67;44.33;29.67
55076;PMS7003;40971;44.702;11.030;2023-09-30T03:06:36;44.33;40.33;30.67
55076;PMS7003;40971;44.702;11.030;2023-09-30T03:16:39;53.75;44.00;30.50
55076;PMS7003;40971;44.702;11.030;2023-09-30T03:26:43;56.67;48.67;32.67
55076;PMS7003;40971;44.702;11.030;2023-09-30T03:36:48;41.44;40.67;27.56
55076;PMS7003;40971;44.702;11.030;2023-09-30T03:46:52;45.33;41.00;28.33
55076;PMS7003;40971;44.702;11.030;2023-09-30T03:56:56;47.89;43.78;29.00
55076;PMS7003;40971;44.702;11.030;2023-09-30T04:06:59;52.33;47.00;30.00
55076;PMS7003;40971;44.702;11.030;2023-09-30T04:17:00;53.00;46.67;31.67
55076;PMS7003;40971;44.702;11.030;2023-09-30T04:27:02;50.33;44.00;30.00
55076;PMS7003;40971;44.702;11.030;2023-09-30T04:37:08;56.00;47.67;33.00
55076;PMS7003;40971;44.702;11.030;2023-09-30T04:47:11;55.00;47.67;33.00
55076;PMS7003;40971;44.702;11.030;2023-09-30T04:57:13;62.00;52.33;33.67
55076;PMS7003;40971;44.702;11.030;2023-09-30T05:07:15;64.00;52.20;33.80
55076;PMS7003;40971;44.702;11.030;2023-09-30T05:17:16;47.80;44.40;31.20
55076;PMS7003;40971;44.702;11.030;2023-09-30T05:27:19;44.00;41.00;27.33
55076;PMS7003;40971;44.702;11.030;2023-09-30T05:37:22;52.25;46.00;31.75
55076;PMS7003;40971;44.702;11.030;2023-09-30T05:47:25;48.67;45.67;30.00
55076;PMS7003;40971;44.702;11.030;2023-09-30T05:57:27;53.33;48.33;30.67
55076;PMS7003;40971;44.702;11.030;2023-09-30T06:07:30;53.67;45.33;31.33
55076;PMS7003;40971;44.702;11.030;2023-09-30T06:17:32;57.00;48.00;32.50
55076;PMS7003;40971;44.702;11.030;2023-09-30T06:27:35;49.67;45.67;31.00
55076;PMS7003;40971;44.702;11.030;2023-09-30T06:37:40;50.50;43.50;31.00
55076;PMS7003;40971;44.702;11.030;2023-09-30T06:47:43;53.50;46.75;31.50
55076;PMS7003;40971;44.702;11.030;2023-09-30T06:57:48;43.00;40.25;27.50
55076;PMS7003;40971;44.702;11.030;2023-09-30T07:07:50;46.25;41.25;28.00
55076;PMS7003;40971;44.702;11.030;2023-09-30T07:17:52;39.67;38.33;27.00
55076;PMS7003;40971;44.702;11.030;2023-09-30T07:27:54;49.33;42.00;28.00
55076;PMS7003;40971;44.702;11.030;2023-09-30T07:37:56;41.25;37.25;25.50
55076;PMS7003;40971;44.702;11.030;2023-09-30T07:48:00;36.00;34.50;24.00
55076;PMS7003;40971;44.702;11.030;2023-09-30T07:58:06;38.25;36.25;25.50
55076;PMS7003;40971;44.702;11.030;2023-09-30T08:08:08;32.00;32.00;22.00
55076;PMS7003;40971;44.702;11.030;2023-09-30T08:18:09;32.00;29.67;22.00
55076;PMS7003;40971;44.702;11.030;2023-09-30T08:28:11;26.00;25.33;19.00
55076;PMS7003;40971;44.702;11.030;2023-09-30T08:38:14;29.75;28.75;20.25
55076;PMS7003;40971;44.702;11.030;2023-09-30T08:48:16;24.00;24.00;18.33
55076;PMS7003;40971;44.702;11.030;2023-09-30T08:58:19;29.50;28.00;20.00
55076;PMS7003;40971;44.702;11.030;2023-09-30T09:08:25;32.67;32.00;21.67
55076;PMS7003;40971;44.702;11.030;2023-09-30T09:18:32;28.00;28.00;21.00
55076;PMS7003;40971;44.702;11.030;2023-09-30T09:28:36;33.75;30.75;22.00
55076;PMS7003;40971;44.702;11.030;2023-09-30T09:38:44;28.00;26.50;21.00
55076;PMS7003;40971;44.702;11.030;2023-09-30T09:48:52;33.75;31.75;22.00
55076;PMS7003;40971;44.702;11.030;2023-09-30T09:58:56;34.00;31.00;23.00
55076;PMS7003;40971;44.702;11.030;2023-09-30T10:09:00;28.13;27.38;19.88
55076;PMS7003;40971;44.702;11.030;2023-09-30T10:19:14;27.50;27.50;19.50
55076;PMS7003;40971;44.702;11.030;2023-09-30T10:29:18;27.50;27.50;20.00
55076;PMS7003;40971;44.702;11.030;2023-09-30T10:39:52;31.20;30.60;21.60
55076;PMS7003;40971;44.702;11.030;2023-09-30T10:49:59;27.50;26.00;18.50
55076;PMS7003;40971;44.702;11.030;2023-09-30T11:00:09;28.57;28.57;20.29
55076;PMS7003;40971;44.702;11.030;2023-09-30T11:10:14;32.00;29.50;20.00
55076;PMS7003;40971;44.702;11.030;2023-09-30T11:20:17;29.00;27.50;20.00
55076;PMS7003;40971;44.702;11.030;2023-09-30T11:30:20;28.00;27.00;20.25
55076;PMS7003;40971;44.702;11.030;2023-09-30T11:40:24;28.80;26.60;19.40
55076;PMS7003;40971;44.702;11.030;2023-09-30T11:50:44;26.00;26.00;19.80
55076;PMS7003;40971;44.702;11.030;2023-09-30T12:00:48;25.00;25.00;19.40
55076;PMS7003;40971;44.702;11.030;2023-09-30T12:10:53;28.80;27.60;20.40
55076;PMS7003;40971;44.702;11.030;2023-09-30T12:20:53;23.00;23.00;18.00
55076;PMS7003;40971;44.702;11.030;2023-09-30T12:30:55;26.00;24.67;18.00
55076;PMS7003;40971;44.702;11.030;2023-09-30T12:40:56;26.00;26.00;19.50
55076;PMS7003;40971;44.702;11.030;2023-09-30T12:50:58;26.50;26.50;18.00
55076;PMS7003;40971;44.702;11.030;2023-09-30T13:01:00;21.67;21.67;19.67
55076;PMS7003;40971;44.702;11.030;2023-09-30T13:11:04;23.75;23.50;17.25
55076;PMS7003;40971;44.702;11.030;2023-09-30T13:21:07;21.00;21.00;17.33
55076;PMS7003;40971;44.702;11.030;2023-09-30T13:31:11;19.86;19.86;16.43
55076;PMS7003;40971;44.702;11.030;2023-09-30T13:41:12;22.40;22.40;17.60
55076;PMS7003;40971;44.702;11.030;2023-09-30T13:51:14;20.67;20.67;15.00
55076;PMS7003;40971;44.702;11.030;2023-09-30T14:01:16;18.00;18.00;14.00
55076;PMS7003;40971;44.702;11.030;2023-09-30T14:11:21;20.67;19.00;14.00
55076;PMS7003;40971;44.702;11.030;2023-09-30T14:21:25;16.38;16.38;14.00
55076;PMS7003;40971;44.702;11.030;2023-09-30T14:31:29;16.75;16.75;14.88
55076;PMS7003;40971;44.702;11.030;2023-09-30T14:41:30;18.00;18.00;13.33
55076;PMS7003;40971;44.702;11.030;2023-09-30T14:51:33;17.00;16.33;13.00
55076;PMS7003;40971;44.702;11.030;2023-09-30T15:01:35;20.67;19.67;14.67
55076;PMS7003;40971;44.702;11.030;2023-09-30T15:11:37;17.50;17.50;12.00
55076;PMS7003;40971;44.702;11.030;2023-09-30T15:21:39;16.67;16.67;13.67
55076;PMS7003;40971;44.702;11.030;2023-09-30T15:31:42;17.67;14.67;12.67
55076;PMS7003;40971;44.702;11.030;2023-09-30T15:41:43;16.00;16.00;12.00
55076;PMS7003;40971;44.702;11.030;2023-09-30T15:51:44;13.00;12.67;10.33
55076;PMS7003;40971;44.702;11.030;2023-09-30T16:01:46;12.00;12.00;8.80
55076;PMS7003;40971;44.702;11.030;2023-09-30T16:11:47;10.67;10.67;9.00
55076;PMS7003;40971;44.702;11.030;2023-09-30T16:21:49;9.00;9.00;7.00
55076;PMS7003;40971;44.702;11.030;2023-09-30T16:31:50;8.00;8.00;7.00
55076;PMS7003;40971;44.702;11.030;2023-09-30T16:41:51;8.00;8.00;7.00
55076;PMS7003;40971;44.702;11.030;2023-09-30T16:51:54;9.00;9.00;6.71
55076;PMS7003;40971;44.702;11.030;2023-09-30T17:01:55;12.50;12.50;9.00
55076;PMS7003;40971;44.702;11.030;2023-09-30T17:11:56;14.00;12.67;10.00
55076;PMS7003;40971;44.702;11.030;2023-09-30T17:21:57;10.00;10.00;7.67
55076;PMS7003;40971;44.702;11.030;2023-09-30T17:31:59;13.20;13.20;10.00
55076;PMS7003;40971;44.702;11.030;2023-09-30T17:42:04;14.00;12.67;11.00
55076;PMS7003;40971;44.702;11.030;2023-09-30T17:52:05;16.33;13.00;11.00
55076;PMS7003;40971;44.702;11.030;2023-09-30T18:02:08;14.50;12.83;9.67
55076;PMS7003;40971;44.702;11.030;2023-09-30T18:12:10;13.67;13.33;9.00
55076;PMS7003;40971;44.702;11.030;2023-09-30T18:22:14;13.14;13.14;10.86
55076;PMS7003;40971;44.702;11.030;2023-09-30T18:32:17;15.33;15.33;13.00
55076;PMS7003;40971;44.702;11.030;2023-09-30T18:42:18;10.67;10.67;8.67
55076;PMS7003;40971;44.702;11.030;2023-09-30T18:52:20;13.00;12.67;10.00
55076;PMS7003;40971;44.702;11.030;2023-09-30T19:02:21;12.67;10.67;10.00
55076;PMS7003;40971;44.702;11.030;2023-09-30T19:12:23;14.00;13.33;10.00
55076;PMS7003;40971;44.702;11.030;2023-09-30T19:22:24;18.80;18.20;14.40
55076;PMS7003;40971;44.702;11.030;2023-09-30T19:32:26;21.00;19.00;14.00
55076;PMS7003;40971;44.702;11.030;2023-09-30T19:42:31;24.67;22.22;17.44
55076;PMS7003;40971;44.702;11.030;2023-09-30T19:52:34;28.67;26.67;19.33
55076;PMS7003;40971;44.702;11.030;2023-09-30T20:02:39;25.44;25.11;19.11
55076;PMS7003;40971;44.702;11.030;2023-09-30T20:12:41;23.00;23.00;17.00
55076;PMS7003;40971;44.702;11.030;2023-09-30T20:22:44;24.33;24.33;20.00
55076;PMS7003;40971;44.702;11.030;2023-09-30T20:32:46;21.50;21.50;17.50
55076;PMS7003;40971;44.702;11.030;2023-09-30T20:42:48;26.67;26.00;20.00
55076;PMS7003;40971;44.702;11.030;2023-09-30T20:52:51;25.00;23.33;18.00
55076;PMS7003;40971;44.702;11.030;2023-09-30T21:02:53;26.00;26.00;21.00
55076;PMS7003;40971;44.702;11.030;2023-09-30T21:12:57;29.00;29.00;21.67
55076;PMS7003;40971;44.702;11.030;2023-09-30T21:23:02;34.89;32.78;22.67
55076;PMS7003;40971;44.702;11.030;2023-09-30T21:33:05;35.67;33.00;22.00
55076;PMS7003;40971;44.702;11.030;2023-09-30T21:43:10;26.89;24.56;19.00
55076;PMS7003;40971;44.702;11.030;2023-09-30T21:53:12;30.33;29.33;24.00
55076;PMS7003;40971;44.702;11.030;2023-09-30T22:03:17;32.00;29.00;21.00
55076;PMS7003;40971;44.702;11.030;2023-09-30T22:13:18;33.60;31.20;23.20
55076;PMS7003;40971;44.702;11.030;2023-09-30T22:23:22;32.67;29.67;24.00
55076;PMS7003;40971;44.702;11.030;2023-09-30T22:33:27;31.22;28.33;20.56
55076;PMS7003;40971;44.702;11.030;2023-09-30T22:43:29;23.33;23.33;20.00
55076;PMS7003;40971;44.702;11.030;2023-09-30T22:53:30;24.50;24.50;20.00
55076;PMS7003;40971;44.702;11.030;2023-09-30T23:03:34;32.13;30.75;22.63
55076;PMS7003;40971;44.702;11.030;2023-09-30T23:13:37;35.00;33.00;23.00
55076;PMS7003;40971;44.702;11.030;2023-09-30T23:23:38;31.00;30.00;21.00
55076;PMS7003;40971;44.702;11.030;2023-09-30T23:33:43;30.33;30.33;23.00
55076;PMS7003;40971;44.702;11.030;2023-09-30T23:43:48;34.00;33.33;25.67
55076;PMS7003;40971;44.702;11.030;2023-09-30T23:53:56;41.33;39.00;28.00
